sensor_id;sensor_type;location;lat;lon;timestamp;P1;durP1;ratioP1;P2;durP2;ratioP2
52354;SDS011;38286;51.156;17.038;2022-10-16T00:01:24;17.92;;;10.63;;
52354;SDS011;38286;51.156;17.038;2022-10-16T00:03:51;16.77;;;10.82;;
52354;SDS011;38286;51.156;17.038;2022-10-16T00:06:17;16.60;;;10.80;;
52354;SDS011;38286;51.156;17.038;2022-10-16T00:08:44;17.23;;;10.32;;
52354;SDS011;38286;51.156;17.038;2022-10-16T00:11:15;17.70;;;10.82;;
52354;SDS011;38286;51.156;17.038;2022-10-16T00:13:43;17.65;;;10.25;;
52354;SDS011;38286;51.156;17.038;2022-10-16T00:16:10;17.15;;;10.43;;
52354;SDS011;38286;51.156;17.038;2022-10-16T00:18:37;15.93;;;10.20;;
52354;SDS011;38286;51.156;17.038;2022-10-16T00:21:10;16.35;;;10.27;;
52354;SDS011;38286;51.156;17.038;2022-10-16T00:23:41;17.13;;;9.63;;
52354;SDS011;38286;51.156;17.038;2022-10-16T00:26:07;16.13;;;9.95;;
52354;SDS011;38286;51.156;17.038;2022-10-16T00:28:35;14.70;;;9.48;;
52354;SDS011;38286;51.156;17.038;2022-10-16T00:31:04;13.48;;;8.73;;
52354;SDS011;38286;51.156;17.038;2022-10-16T00:33:35;14.82;;;9.20;;
52354;SDS011;38286;51.156;17.038;2022-10-16T00:36:01;16.15;;;9.68;;
52354;SDS011;38286;51.156;17.038;2022-10-16T00:38:28;12.98;;;8.80;;
52354;SDS011;38286;51.156;17.038;2022-10-16T00:40:54;13.45;;;8.35;;
52354;SDS011;38286;51.156;17.038;2022-10-16T00:46:26;13.82;;;8.15;;
52354;SDS011;38286;51.156;17.038;2022-10-16T00:51:32;13.80;;;8.75;;
52354;SDS011;38286;51.156;17.038;2022-10-16T00:54:00;13.05;;;8.55;;
52354;SDS011;38286;51.156;17.038;2022-10-16T00:56:28;14.77;;;8.35;;
52354;SDS011;38286;51.156;17.038;2022-10-16T00:58:56;12.52;;;8.32;;
52354;SDS011;38286;51.156;17.038;2022-10-16T01:01:22;12.07;;;8.43;;
52354;SDS011;38286;51.156;17.038;2022-10-16T01:03:48;11.18;;;7.82;;
52354;SDS011;38286;51.156;17.038;2022-10-16T01:06:24;11.13;;;7.30;;
52354;SDS011;38286;51.156;17.038;2022-10-16T01:11:44;11.85;;;7.03;;
52354;SDS011;38286;51.156;17.038;2022-10-16T01:17:00;10.18;;;7.10;;
52354;SDS011;38286;51.156;17.038;2022-10-16T01:22:09;9.68;;;7.00;;
52354;SDS011;38286;51.156;17.038;2022-10-16T01:24:39;8.70;;;6.10;;
52354;SDS011;38286;51.156;17.038;2022-10-16T01:27:13;10.77;;;7.25;;
52354;SDS011;38286;51.156;17.038;2022-10-16T01:29:49;10.82;;;6.43;;
52354;SDS011;38286;51.156;17.038;2022-10-16T01:34:54;11.55;;;6.85;;
52354;SDS011;38286;51.156;17.038;2022-10-16T01:37:27;10.65;;;6.65;;
52354;SDS011;38286;51.156;17.038;2022-10-16T01:40:02;9.73;;;6.47;;
52354;SDS011;38286;51.156;17.038;2022-10-16T01:42:33;8.68;;;6.20;;
52354;SDS011;38286;51.156;17.038;2022-10-16T01:45:00;11.35;;;6.63;;
52354;SDS011;38286;51.156;17.038;2022-10-16T01:47:26;9.57;;;6.40;;
52354;SDS011;38286;51.156;17.038;2022-10-16T01:49:53;9.82;;;6.25;;
52354;SDS011;38286;51.156;17.038;2022-10-16T01:52:21;11.82;;;6.72;;
52354;SDS011;38286;51.156;17.038;2022-10-16T01:54:49;11.07;;;6.85;;
52354;SDS011;38286;51.156;17.038;2022-10-16T01:57:16;8.82;;;5.97;;
52354;SDS011;38286;51.156;17.038;2022-10-16T01:59:44;9.73;;;6.28;;
52354;SDS011;38286;51.156;17.038;2022-10-16T02:02:12;9.65;;;6.50;;
52354;SDS011;38286;51.156;17.038;2022-10-16T02:07:24;8.98;;;6.68;;
52354;SDS011;38286;51.156;17.038;2022-10-16T02:09:50;12.65;;;6.85;;
52354;SDS011;38286;51.156;17.038;2022-10-16T02:12:19;9.73;;;6.05;;
52354;SDS011;38286;51.156;17.038;2022-10-16T02:14:49;11.48;;;6.93;;
52354;SDS011;38286;51.156;17.038;2022-10-16T02:17:16;10.15;;;6.63;;
52354;SDS011;38286;51.156;17.038;2022-10-16T02:19:42;12.13;;;7.03;;
52354;SDS011;38286;51.156;17.038;2022-10-16T02:22:09;9.60;;;6.88;;
52354;SDS011;38286;51.156;17.038;2022-10-16T02:27:19;11.30;;;7.95;;
52354;SDS011;38286;51.156;17.038;2022-10-16T02:32:53;10.77;;;7.25;;
52354;SDS011;38286;51.156;17.038;2022-10-16T02:35:19;9.43;;;6.40;;
52354;SDS011;38286;51.156;17.038;2022-10-16T02:37:46;10.73;;;7.28;;
52354;SDS011;38286;51.156;17.038;2022-10-16T02:40:13;12.05;;;7.32;;
52354;SDS011;38286;51.156;17.038;2022-10-16T02:42:39;10.98;;;6.80;;
52354;SDS011;38286;51.156;17.038;2022-10-16T02:45:07;9.85;;;6.28;;
52354;SDS011;38286;51.156;17.038;2022-10-16T02:47:33;9.98;;;7.28;;
52354;SDS011;38286;51.156;17.038;2022-10-16T02:49:59;12.05;;;6.47;;
52354;SDS011;38286;51.156;17.038;2022-10-16T02:52:25;11.02;;;7.35;;
52354;SDS011;38286;51.156;17.038;2022-10-16T02:54:50;10.85;;;7.38;;
52354;SDS011;38286;51.156;17.038;2022-10-16T02:57:17;12.82;;;7.25;;
52354;SDS011;38286;51.156;17.038;2022-10-16T02:59:43;10.18;;;7.35;;
52354;SDS011;38286;51.156;17.038;2022-10-16T03:02:09;11.30;;;7.43;;
52354;SDS011;38286;51.156;17.038;2022-10-16T03:04:34;13.30;;;7.88;;
52354;SDS011;38286;51.156;17.038;2022-10-16T03:07:00;10.82;;;6.95;;
52354;SDS011;38286;51.156;17.038;2022-10-16T03:09:26;13.18;;;7.10;;
52354;SDS011;38286;51.156;17.038;2022-10-16T03:11:51;10.40;;;7.07;;
52354;SDS011;38286;51.156;17.038;2022-10-16T03:14:17;11.50;;;7.75;;
52354;SDS011;38286;51.156;17.038;2022-10-16T03:16:43;10.30;;;6.45;;
52354;SDS011;38286;51.156;17.038;2022-10-16T03:19:08;11.10;;;7.35;;
52354;SDS011;38286;51.156;17.038;2022-10-16T03:21:34;11.70;;;6.97;;
52354;SDS011;38286;51.156;17.038;2022-10-16T03:24:00;10.88;;;7.38;;
52354;SDS011;38286;51.156;17.038;2022-10-16T03:26:25;14.55;;;7.68;;
52354;SDS011;38286;51.156;17.038;2022-10-16T03:28:51;10.98;;;7.18;;
52354;SDS011;38286;51.156;17.038;2022-10-16T03:31:16;12.93;;;8.05;;
52354;SDS011;38286;51.156;17.038;2022-10-16T03:33:42;12.90;;;7.47;;
52354;SDS011;38286;51.156;17.038;2022-10-16T03:36:08;12.40;;;7.25;;
52354;SDS011;38286;51.156;17.038;2022-10-16T03:38:33;11.93;;;7.90;;
52354;SDS011;38286;51.156;17.038;2022-10-16T03:40:59;12.70;;;8.05;;
52354;SDS011;38286;51.156;17.038;2022-10-16T03:43:24;13.77;;;8.10;;
52354;SDS011;38286;51.156;17.038;2022-10-16T03:45:50;13.60;;;8.15;;
52354;SDS011;38286;51.156;17.038;2022-10-16T03:48:17;11.55;;;8.30;;
52354;SDS011;38286;51.156;17.038;2022-10-16T03:50:45;14.55;;;8.07;;
52354;SDS011;38286;51.156;17.038;2022-10-16T03:53:14;16.70;;;8.40;;
52354;SDS011;38286;51.156;17.038;2022-10-16T03:55:43;11.13;;;7.40;;
52354;SDS011;38286;51.156;17.038;2022-10-16T03:58:09;11.93;;;8.20;;
52354;SDS011;38286;51.156;17.038;2022-10-16T04:00:35;12.30;;;7.78;;
52354;SDS011;38286;51.156;17.038;2022-10-16T04:03:01;12.30;;;8.43;;
52354;SDS011;38286;51.156;17.038;2022-10-16T04:05:26;12.95;;;8.02;;
52354;SDS011;38286;51.156;17.038;2022-10-16T04:07:52;12.32;;;8.15;;
52354;SDS011;38286;51.156;17.038;2022-10-16T04:10:18;11.20;;;7.90;;
52354;SDS011;38286;51.156;17.038;2022-10-16T04:12:44;12.82;;;9.07;;
52354;SDS011;38286;51.156;17.038;2022-10-16T04:15:09;14.50;;;8.43;;
52354;SDS011;38286;51.156;17.038;2022-10-16T04:17:35;14.00;;;9.00;;
52354;SDS011;38286;51.156;17.038;2022-10-16T04:20:01;15.90;;;8.90;;
52354;SDS011;38286;51.156;17.038;2022-10-16T04:22:27;16.65;;;9.98;;
52354;SDS011;38286;51.156;17.038;2022-10-16T04:24:53;14.48;;;8.95;;
52354;SDS011;38286;51.156;17.038;2022-10-16T04:27:19;16.05;;;9.43;;
52354;SDS011;38286;51.156;17.038;2022-10-16T04:29:44;13.52;;;9.00;;
52354;SDS011;38286;51.156;17.038;2022-10-16T04:32:10;15.32;;;9.95;;
52354;SDS011;38286;51.156;17.038;2022-10-16T04:34:35;16.10;;;9.63;;
52354;SDS011;38286;51.156;17.038;2022-10-16T04:37:01;16.38;;;10.77;;
52354;SDS011;38286;51.156;17.038;2022-10-16T04:39:27;15.75;;;9.48;;
52354;SDS011;38286;51.156;17.038;2022-10-16T04:41:53;17.52;;;9.85;;
52354;SDS011;38286;51.156;17.038;2022-10-16T04:44:18;12.80;;;8.68;;
52354;SDS011;38286;51.156;17.038;2022-10-16T04:46:44;15.10;;;9.57;;
52354;SDS011;38286;51.156;17.038;2022-10-16T04:49:09;14.68;;;9.27;;
52354;SDS011;38286;51.156;17.038;2022-10-16T04:51:35;16.17;;;9.98;;
52354;SDS011;38286;51.156;17.038;2022-10-16T04:54:01;13.77;;;9.20;;
52354;SDS011;38286;51.156;17.038;2022-10-16T04:56:26;13.82;;;9.27;;
52354;SDS011;38286;51.156;17.038;2022-10-16T04:58:52;14.98;;;9.13;;
52354;SDS011;38286;51.156;17.038;2022-10-16T05:01:17;14.32;;;8.38;;
52354;SDS011;38286;51.156;17.038;2022-10-16T05:03:43;11.55;;;7.82;;
52354;SDS011;38286;51.156;17.038;2022-10-16T05:06:09;11.30;;;8.07;;
52354;SDS011;38286;51.156;17.038;2022-10-16T05:08:34;12.18;;;8.00;;
52354;SDS011;38286;51.156;17.038;2022-10-16T05:11:00;11.63;;;7.88;;
52354;SDS011;38286;51.156;17.038;2022-10-16T05:13:27;12.32;;;7.60;;
52354;SDS011;38286;51.156;17.038;2022-10-16T05:15:52;12.90;;;7.65;;
52354;SDS011;38286;51.156;17.038;2022-10-16T05:18:18;12.13;;;7.35;;
52354;SDS011;38286;51.156;17.038;2022-10-16T05:20:44;11.00;;;8.40;;
52354;SDS011;38286;51.156;17.038;2022-10-16T05:23:10;12.73;;;7.72;;
52354;SDS011;38286;51.156;17.038;2022-10-16T05:25:37;10.90;;;7.57;;
52354;SDS011;38286;51.156;17.038;2022-10-16T05:28:02;12.18;;;8.05;;
52354;SDS011;38286;51.156;17.038;2022-10-16T05:30:28;11.80;;;7.78;;
52354;SDS011;38286;51.156;17.038;2022-10-16T05:32:54;13.65;;;9.50;;
52354;SDS011;38286;51.156;17.038;2022-10-16T05:35:19;11.80;;;8.40;;
52354;SDS011;38286;51.156;17.038;2022-10-16T05:37:45;12.32;;;7.57;;
52354;SDS011;38286;51.156;17.038;2022-10-16T05:40:11;10.43;;;7.57;;
52354;SDS011;38286;51.156;17.038;2022-10-16T05:42:38;10.63;;;7.28;;
52354;SDS011;38286;51.156;17.038;2022-10-16T05:45:04;11.40;;;7.45;;
52354;SDS011;38286;51.156;17.038;2022-10-16T05:47:31;11.93;;;7.60;;
52354;SDS011;38286;51.156;17.038;2022-10-16T05:49:56;10.82;;;7.45;;
52354;SDS011;38286;51.156;17.038;2022-10-16T05:52:22;9.85;;;7.50;;
52354;SDS011;38286;51.156;17.038;2022-10-16T05:54:48;12.60;;;7.80;;
52354;SDS011;38286;51.156;17.038;2022-10-16T05:57:13;10.88;;;7.72;;
52354;SDS011;38286;51.156;17.038;2022-10-16T05:59:39;10.50;;;7.60;;
52354;SDS011;38286;51.156;17.038;2022-10-16T06:02:05;10.02;;;7.15;;
52354;SDS011;38286;51.156;17.038;2022-10-16T06:04:30;10.98;;;7.50;;
52354;SDS011;38286;51.156;17.038;2022-10-16T06:06:58;12.23;;;8.05;;
52354;SDS011;38286;51.156;17.038;2022-10-16T06:09:25;14.50;;;7.63;;
52354;SDS011;38286;51.156;17.038;2022-10-16T06:11:51;14.18;;;8.18;;
52354;SDS011;38286;51.156;17.038;2022-10-16T06:14:17;13.07;;;7.78;;
52354;SDS011;38286;51.156;17.038;2022-10-16T06:16:42;11.48;;;7.22;;
52354;SDS011;38286;51.156;17.038;2022-10-16T06:19:08;10.57;;;7.20;;
52354;SDS011;38286;51.156;17.038;2022-10-16T06:21:34;12.05;;;7.18;;
52354;SDS011;38286;51.156;17.038;2022-10-16T06:24:03;11.10;;;7.57;;
52354;SDS011;38286;51.156;17.038;2022-10-16T06:26:30;11.95;;;7.10;;
52354;SDS011;38286;51.156;17.038;2022-10-16T06:28:59;11.45;;;7.22;;
52354;SDS011;38286;51.156;17.038;2022-10-16T06:31:25;12.43;;;7.95;;
52354;SDS011;38286;51.156;17.038;2022-10-16T06:33:53;10.20;;;7.07;;
52354;SDS011;38286;51.156;17.038;2022-10-16T06:36:19;10.13;;;7.35;;
52354;SDS011;38286;51.156;17.038;2022-10-16T06:38:45;11.40;;;7.57;;
52354;SDS011;38286;51.156;17.038;2022-10-16T06:41:11;10.38;;;7.38;;
52354;SDS011;38286;51.156;17.038;2022-10-16T06:43:38;10.25;;;6.90;;
52354;SDS011;38286;51.156;17.038;2022-10-16T06:46:05;9.35;;;6.65;;
52354;SDS011;38286;51.156;17.038;2022-10-16T06:48:33;10.63;;;6.97;;
52354;SDS011;38286;51.156;17.038;2022-10-16T06:51:00;10.30;;;6.95;;
52354;SDS011;38286;51.156;17.038;2022-10-16T06:53:26;9.15;;;6.30;;
52354;SDS011;38286;51.156;17.038;2022-10-16T06:55:53;8.30;;;6.43;;
52354;SDS011;38286;51.156;17.038;2022-10-16T06:58:19;9.05;;;5.63;;
52354;SDS011;38286;51.156;17.038;2022-10-16T07:00:46;13.63;;;6.30;;
52354;SDS011;38286;51.156;17.038;2022-10-16T07:03:12;7.72;;;6.10;;
52354;SDS011;38286;51.156;17.038;2022-10-16T07:05:38;10.20;;;6.53;;
52354;SDS011;38286;51.156;17.038;2022-10-16T07:08:04;8.82;;;6.45;;
52354;SDS011;38286;51.156;17.038;2022-10-16T07:10:30;9.68;;;6.20;;
52354;SDS011;38286;51.156;17.038;2022-10-16T07:12:57;10.02;;;6.25;;
52354;SDS011;38286;51.156;17.038;2022-10-16T07:15:22;9.70;;;5.35;;
52354;SDS011;38286;51.156;17.038;2022-10-16T07:17:48;9.48;;;6.05;;
52354;SDS011;38286;51.156;17.038;2022-10-16T07:20:13;8.55;;;5.60;;
52354;SDS011;38286;51.156;17.038;2022-10-16T07:22:39;6.78;;;5.40;;
52354;SDS011;38286;51.156;17.038;2022-10-16T07:25:05;7.88;;;5.60;;
52354;SDS011;38286;51.156;17.038;2022-10-16T07:27:31;7.45;;;5.57;;
52354;SDS011;38286;51.156;17.038;2022-10-16T07:29:56;7.15;;;5.60;;
52354;SDS011;38286;51.156;17.038;2022-10-16T07:32:22;9.18;;;5.20;;
52354;SDS011;38286;51.156;17.038;2022-10-16T07:34:48;11.35;;;5.68;;
52354;SDS011;38286;51.156;17.038;2022-10-16T07:37:14;7.10;;;5.15;;
52354;SDS011;38286;51.156;17.038;2022-10-16T07:39:39;7.90;;;5.55;;
52354;SDS011;38286;51.156;17.038;2022-10-16T07:42:05;8.75;;;5.75;;
52354;SDS011;38286;51.156;17.038;2022-10-16T07:44:31;7.15;;;5.43;;
52354;SDS011;38286;51.156;17.038;2022-10-16T07:46:57;8.32;;;6.05;;
52354;SDS011;38286;51.156;17.038;2022-10-16T07:49:22;9.80;;;6.32;;
52354;SDS011;38286;51.156;17.038;2022-10-16T07:51:48;9.35;;;5.57;;
52354;SDS011;38286;51.156;17.038;2022-10-16T07:54:14;10.38;;;6.07;;
52354;SDS011;38286;51.156;17.038;2022-10-16T07:56:39;7.13;;;5.00;;
52354;SDS011;38286;51.156;17.038;2022-10-16T07:59:05;10.50;;;5.75;;
52354;SDS011;38286;51.156;17.038;2022-10-16T08:01:31;6.63;;;4.72;;
52354;SDS011;38286;51.156;17.038;2022-10-16T08:03:56;7.30;;;5.45;;
52354;SDS011;38286;51.156;17.038;2022-10-16T08:06:22;8.38;;;5.40;;
52354;SDS011;38286;51.156;17.038;2022-10-16T08:08:48;9.27;;;4.90;;
52354;SDS011;38286;51.156;17.038;2022-10-16T08:11:13;6.47;;;4.80;;
52354;SDS011;38286;51.156;17.038;2022-10-16T08:13:40;9.95;;;4.82;;
52354;SDS011;38286;51.156;17.038;2022-10-16T08:16:06;6.38;;;4.43;;
52354;SDS011;38286;51.156;17.038;2022-10-16T08:18:39;6.32;;;4.07;;
52354;SDS011;38286;51.156;17.038;2022-10-16T08:21:06;4.57;;;3.60;;
52354;SDS011;38286;51.156;17.038;2022-10-16T08:23:33;5.07;;;3.80;;
52354;SDS011;38286;51.156;17.038;2022-10-16T08:26:03;7.68;;;3.38;;
52354;SDS011;38286;51.156;17.038;2022-10-16T08:28:30;4.65;;;3.28;;
52354;SDS011;38286;51.156;17.038;2022-10-16T08:30:56;6.15;;;3.22;;
52354;SDS011;38286;51.156;17.038;2022-10-16T08:33:30;4.35;;;3.58;;
52354;SDS011;38286;51.156;17.038;2022-10-16T08:35:55;4.60;;;3.53;;
52354;SDS011;38286;51.156;17.038;2022-10-16T08:38:21;4.22;;;3.17;;
52354;SDS011;38286;51.156;17.038;2022-10-16T08:40:47;3.25;;;2.90;;
52354;SDS011;38286;51.156;17.038;2022-10-16T08:46:17;3.03;;;2.72;;
52354;SDS011;38286;51.156;17.038;2022-10-16T08:48:51;3.88;;;2.88;;
52354;SDS011;38286;51.156;17.038;2022-10-16T08:51:27;5.45;;;3.10;;
52354;SDS011;38286;51.156;17.038;2022-10-16T08:54:04;3.88;;;3.10;;
52354;SDS011;38286;51.156;17.038;2022-10-16T08:56:34;5.03;;;3.20;;
52354;SDS011;38286;51.156;17.038;2022-10-16T08:58:59;4.03;;;3.10;;
52354;SDS011;38286;51.156;17.038;2022-10-16T09:01:29;3.60;;;3.05;;
52354;SDS011;38286;51.156;17.038;2022-10-16T09:06:47;3.17;;;2.70;;
52354;SDS011;38286;51.156;17.038;2022-10-16T09:09:34;4.30;;;3.47;;
52354;SDS011;38286;51.156;17.038;2022-10-16T09:15:28;3.72;;;2.80;;
52354;SDS011;38286;51.156;17.038;2022-10-16T09:20:20;3.92;;;3.28;;
52354;SDS011;38286;51.156;17.038;2022-10-16T09:22:55;5.63;;;3.35;;
52354;SDS011;38286;51.156;17.038;2022-10-16T09:25:33;5.95;;;2.92;;
52354;SDS011;38286;51.156;17.038;2022-10-16T09:27:59;4.70;;;3.30;;
52354;SDS011;38286;51.156;17.038;2022-10-16T09:30:26;4.18;;;2.95;;
52354;SDS011;38286;51.156;17.038;2022-10-16T09:32:54;10.73;;;3.85;;
52354;SDS011;38286;51.156;17.038;2022-10-16T09:35:24;3.47;;;2.88;;
52354;SDS011;38286;51.156;17.038;2022-10-16T09:37:56;5.93;;;2.83;;
52354;SDS011;38286;51.156;17.038;2022-10-16T09:40:25;4.05;;;2.47;;
52354;SDS011;38286;51.156;17.038;2022-10-16T09:43:03;4.47;;;2.80;;
52354;SDS011;38286;51.156;17.038;2022-10-16T09:45:31;4.25;;;2.67;;
52354;SDS011;38286;51.156;17.038;2022-10-16T09:47:57;4.63;;;2.72;;
52354;SDS011;38286;51.156;17.038;2022-10-16T09:50:24;4.30;;;2.60;;
52354;SDS011;38286;51.156;17.038;2022-10-16T09:53:05;3.17;;;2.35;;
52354;SDS011;38286;51.156;17.038;2022-10-16T09:55:36;2.25;;;1.92;;
52354;SDS011;38286;51.156;17.038;2022-10-16T09:58:01;3.72;;;2.30;;
52354;SDS011;38286;51.156;17.038;2022-10-16T10:00:27;3.67;;;2.63;;
52354;SDS011;38286;51.156;17.038;2022-10-16T10:02:53;2.20;;;2.00;;
52354;SDS011;38286;51.156;17.038;2022-10-16T10:05:24;4.95;;;1.90;;
52354;SDS011;38286;51.156;17.038;2022-10-16T10:07:55;3.28;;;2.00;;
52354;SDS011;38286;51.156;17.038;2022-10-16T10:10:29;2.10;;;1.80;;
52354;SDS011;38286;51.156;17.038;2022-10-16T10:12:56;1.77;;;1.52;;
52354;SDS011;38286;51.156;17.038;2022-10-16T10:15:22;2.55;;;1.70;;
52354;SDS011;38286;51.156;17.038;2022-10-16T10:22:48;3.60;;;2.30;;
52354;SDS011;38286;51.156;17.038;2022-10-16T10:25:25;2.13;;;1.92;;
52354;SDS011;38286;51.156;17.038;2022-10-16T10:28:01;3.08;;;2.30;;
52354;SDS011;38286;51.156;17.038;2022-10-16T10:33:24;2.63;;;2.00;;
52354;SDS011;38286;51.156;17.038;2022-10-16T10:55:20;1.85;;;1.75;;
52354;SDS011;38286;51.156;17.038;2022-10-16T11:00:57;1.77;;;1.45;;
52354;SDS011;38286;51.156;17.038;2022-10-16T11:06:40;1.85;;;1.60;;
52354;SDS011;38286;51.156;17.038;2022-10-16T11:09:11;2.17;;;1.55;;
52354;SDS011;38286;51.156;17.038;2022-10-16T11:11:55;2.05;;;1.80;;
52354;SDS011;38286;51.156;17.038;2022-10-16T11:14:25;2.42;;;2.22;;
52354;SDS011;38286;51.156;17.038;2022-10-16T11:19:27;1.95;;;1.73;;
52354;SDS011;38286;51.156;17.038;2022-10-16T11:22:03;2.17;;;1.98;;
52354;SDS011;38286;51.156;17.038;2022-10-16T11:27:40;2.80;;;1.77;;
52354;SDS011;38286;51.156;17.038;2022-10-16T11:30:14;4.22;;;2.00;;
52354;SDS011;38286;51.156;17.038;2022-10-16T11:33:00;2.58;;;2.30;;
52354;SDS011;38286;51.156;17.038;2022-10-16T11:38:32;2.28;;;2.08;;
52354;SDS011;38286;51.156;17.038;2022-10-16T11:41:18;2.40;;;2.10;;
52354;SDS011;38286;51.156;17.038;2022-10-16T11:43:48;3.53;;;2.10;;
52354;SDS011;38286;51.156;17.038;2022-10-16T11:46:21;2.42;;;2.22;;
52354;SDS011;38286;51.156;17.038;2022-10-16T11:48:55;3.05;;;2.03;;
52354;SDS011;38286;51.156;17.038;2022-10-16T11:54:05;2.25;;;2.05;;
52354;SDS011;38286;51.156;17.038;2022-10-16T11:56:51;2.90;;;2.20;;
52354;SDS011;38286;51.156;17.038;2022-10-16T12:02:02;7.05;;;2.90;;
52354;SDS011;38286;51.156;17.038;2022-10-16T12:04:38;2.50;;;2.00;;
52354;SDS011;38286;51.156;17.038;2022-10-16T12:07:14;2.80;;;2.10;;
52354;SDS011;38286;51.156;17.038;2022-10-16T12:09:43;3.13;;;2.00;;
52354;SDS011;38286;51.156;17.038;2022-10-16T12:12:25;2.40;;;2.00;;
52354;SDS011;38286;51.156;17.038;2022-10-16T12:15:00;2.53;;;2.33;;
52354;SDS011;38286;51.156;17.038;2022-10-16T12:17:35;2.38;;;2.10;;
52354;SDS011;38286;51.156;17.038;2022-10-16T12:25:02;2.95;;;2.33;;
52354;SDS011;38286;51.156;17.038;2022-10-16T12:29:55;2.53;;;2.33;;
52354;SDS011;38286;51.156;17.038;2022-10-16T12:32:26;2.65;;;2.40;;
52354;SDS011;38286;51.156;17.038;2022-10-16T12:34:54;4.95;;;3.03;;
52354;SDS011;38286;51.156;17.038;2022-10-16T12:37:21;2.97;;;2.60;;
52354;SDS011;38286;51.156;17.038;2022-10-16T12:39:49;7.18;;;2.53;;
52354;SDS011;38286;51.156;17.038;2022-10-16T12:42:33;2.83;;;2.40;;
52354;SDS011;38286;51.156;17.038;2022-10-16T12:44:59;4.10;;;3.17;;
52354;SDS011;38286;51.156;17.038;2022-10-16T12:49:57;3.00;;;2.70;;
52354;SDS011;38286;51.156;17.038;2022-10-16T12:52:29;4.38;;;3.22;;
52354;SDS011;38286;51.156;17.038;2022-10-16T12:55:02;4.25;;;3.25;;
52354;SDS011;38286;51.156;17.038;2022-10-16T13:05:43;4.70;;;3.45;;
52354;SDS011;38286;51.156;17.038;2022-10-16T13:13:40;7.45;;;4.15;;
52354;SDS011;38286;51.156;17.038;2022-10-16T13:16:21;4.18;;;3.58;;
52354;SDS011;38286;51.156;17.038;2022-10-16T13:19:11;5.50;;;3.80;;
52354;SDS011;38286;51.156;17.038;2022-10-16T13:30:16;5.63;;;4.10;;
52354;SDS011;38286;51.156;17.038;2022-10-16T13:32:47;5.95;;;4.50;;
52354;SDS011;38286;51.156;17.038;2022-10-16T13:35:26;5.72;;;4.00;;
52354;SDS011;38286;51.156;17.038;2022-10-16T13:41:05;5.43;;;3.65;;
52354;SDS011;38286;51.156;17.038;2022-10-16T13:43:51;4.43;;;3.42;;
52354;SDS011;38286;51.156;17.038;2022-10-16T13:46:19;5.72;;;3.63;;
52354;SDS011;38286;51.156;17.038;2022-10-16T13:48:55;4.70;;;3.55;;
52354;SDS011;38286;51.156;17.038;2022-10-16T13:51:25;3.95;;;3.55;;
52354;SDS011;38286;51.156;17.038;2022-10-16T13:53:51;4.72;;;3.60;;
52354;SDS011;38286;51.156;17.038;2022-10-16T13:56:18;6.05;;;3.80;;
52354;SDS011;38286;51.156;17.038;2022-10-16T14:01:33;7.30;;;3.65;;
52354;SDS011;38286;51.156;17.038;2022-10-16T14:04:07;5.88;;;3.70;;
52354;SDS011;38286;51.156;17.038;2022-10-16T14:06:33;4.27;;;3.63;;
52354;SDS011;38286;51.156;17.038;2022-10-16T14:09:07;4.97;;;3.70;;
52354;SDS011;38286;51.156;17.038;2022-10-16T14:11:42;4.93;;;3.47;;
52354;SDS011;38286;51.156;17.038;2022-10-16T14:14:19;3.95;;;3.25;;
52354;SDS011;38286;51.156;17.038;2022-10-16T14:16:45;3.63;;;3.08;;
52354;SDS011;38286;51.156;17.038;2022-10-16T14:21:48;3.53;;;3.22;;
52354;SDS011;38286;51.156;17.038;2022-10-16T14:24:31;6.10;;;3.10;;
52354;SDS011;38286;51.156;17.038;2022-10-16T14:26:59;3.78;;;3.05;;
52354;SDS011;38286;51.156;17.038;2022-10-16T14:29:26;4.22;;;3.40;;
52354;SDS011;38286;51.156;17.038;2022-10-16T14:32:00;3.50;;;2.80;;
52354;SDS011;38286;51.156;17.038;2022-10-16T14:34:30;6.32;;;3.55;;
52354;SDS011;38286;51.156;17.038;2022-10-16T14:37:01;3.60;;;2.77;;
52354;SDS011;38286;51.156;17.038;2022-10-16T14:39:34;4.28;;;2.97;;
52354;SDS011;38286;51.156;17.038;2022-10-16T14:42:00;3.80;;;3.25;;
52354;SDS011;38286;51.156;17.038;2022-10-16T14:44:28;5.72;;;3.25;;
52354;SDS011;38286;51.156;17.038;2022-10-16T14:46:55;2.92;;;2.70;;
52354;SDS011;38286;51.156;17.038;2022-10-16T14:49:21;4.03;;;3.15;;
52354;SDS011;38286;51.156;17.038;2022-10-16T14:51:47;4.88;;;3.25;;
52354;SDS011;38286;51.156;17.038;2022-10-16T14:54:14;3.90;;;3.15;;
52354;SDS011;38286;51.156;17.038;2022-10-16T15:01:51;4.57;;;3.10;;
52354;SDS011;38286;51.156;17.038;2022-10-16T15:04:16;6.20;;;3.65;;
52354;SDS011;38286;51.156;17.038;2022-10-16T15:06:43;3.65;;;3.03;;
52354;SDS011;38286;51.156;17.038;2022-10-16T15:09:09;4.85;;;3.20;;
52354;SDS011;38286;51.156;17.038;2022-10-16T15:11:35;4.07;;;3.47;;
52354;SDS011;38286;51.156;17.038;2022-10-16T15:14:01;4.78;;;3.78;;
52354;SDS011;38286;51.156;17.038;2022-10-16T15:16:26;3.88;;;3.30;;
52354;SDS011;38286;51.156;17.038;2022-10-16T15:18:52;4.75;;;3.67;;
52354;SDS011;38286;51.156;17.038;2022-10-16T15:21:25;5.63;;;3.78;;
52354;SDS011;38286;51.156;17.038;2022-10-16T15:23:53;5.30;;;3.97;;
52354;SDS011;38286;51.156;17.038;2022-10-16T15:26:18;6.00;;;4.13;;
52354;SDS011;38286;51.156;17.038;2022-10-16T15:28:44;10.07;;;4.85;;
52354;SDS011;38286;51.156;17.038;2022-10-16T15:31:10;6.35;;;4.80;;
52354;SDS011;38286;51.156;17.038;2022-10-16T15:33:35;9.77;;;5.35;;
52354;SDS011;38286;51.156;17.038;2022-10-16T15:36:01;8.18;;;5.20;;
52354;SDS011;38286;51.156;17.038;2022-10-16T15:38:27;8.93;;;5.22;;
52354;SDS011;38286;51.156;17.038;2022-10-16T15:40:54;10.48;;;5.38;;
52354;SDS011;38286;51.156;17.038;2022-10-16T15:43:19;12.40;;;5.78;;
52354;SDS011;38286;51.156;17.038;2022-10-16T15:46:08;11.85;;;5.80;;
52354;SDS011;38286;51.156;17.038;2022-10-16T15:48:32;9.35;;;5.50;;
52354;SDS011;38286;51.156;17.038;2022-10-16T15:50:59;7.75;;;5.63;;
52354;SDS011;38286;51.156;17.038;2022-10-16T15:53:25;12.10;;;6.47;;
52354;SDS011;38286;51.156;17.038;2022-10-16T15:55:51;13.07;;;7.32;;
52354;SDS011;38286;51.156;17.038;2022-10-16T15:58:16;10.15;;;6.22;;
52354;SDS011;38286;51.156;17.038;2022-10-16T16:00:42;9.85;;;6.30;;
52354;SDS011;38286;51.156;17.038;2022-10-16T16:03:07;10.77;;;6.70;;
52354;SDS011;38286;51.156;17.038;2022-10-16T16:05:36;9.93;;;6.85;;
52354;SDS011;38286;51.156;17.038;2022-10-16T16:08:02;11.80;;;6.90;;
52354;SDS011;38286;51.156;17.038;2022-10-16T16:10:28;10.32;;;6.53;;
52354;SDS011;38286;51.156;17.038;2022-10-16T16:12:54;11.48;;;7.00;;
52354;SDS011;38286;51.156;17.038;2022-10-16T16:15:20;13.38;;;7.22;;
52354;SDS011;38286;51.156;17.038;2022-10-16T16:17:46;8.68;;;6.22;;
52354;SDS011;38286;51.156;17.038;2022-10-16T16:20:12;9.48;;;6.47;;
52354;SDS011;38286;51.156;17.038;2022-10-16T16:22:38;9.63;;;6.57;;
52354;SDS011;38286;51.156;17.038;2022-10-16T16:25:04;9.40;;;6.70;;
52354;SDS011;38286;51.156;17.038;2022-10-16T16:27:29;10.30;;;7.13;;
52354;SDS011;38286;51.156;17.038;2022-10-16T16:29:58;10.13;;;7.45;;
52354;SDS011;38286;51.156;17.038;2022-10-16T16:32:24;9.55;;;7.00;;
52354;SDS011;38286;51.156;17.038;2022-10-16T16:34:50;10.57;;;7.22;;
52354;SDS011;38286;51.156;17.038;2022-10-16T16:37:16;10.80;;;8.45;;
52354;SDS011;38286;51.156;17.038;2022-10-16T16:39:42;9.88;;;7.63;;
52354;SDS011;38286;51.156;17.038;2022-10-16T16:42:07;9.15;;;7.65;;
52354;SDS011;38286;51.156;17.038;2022-10-16T16:44:35;11.93;;;7.93;;